sensor_id;sensor_type;location;lat;lon;timestamp;P1;durP1;ratioP1;P2;durP2;ratioP2
49460;SDS011;35355;49.198;-0.368;2023-04-06T00:00:47;19.63;;;10.38;;
49460;SDS011;35355;49.198;-0.368;2023-04-06T00:03:13;16.77;;;10.05;;
49460;SDS011;35355;49.198;-0.368;2023-04-06T00:05:38;14.95;;;9.38;;
49460;SDS011;35355;49.198;-0.368;2023-04-06T00:08:04;18.10;;;9.95;;
49460;SDS011;35355;49.198;-0.368;2023-04-06T00:10:30;21.95;;;10.70;;
49460;SDS011;35355;49.198;-0.368;2023-04-06T00:12:55;18.77;;;10.73;;
49460;SDS011;35355;49.198;-0.368;2023-04-06T00:15:22;18.35;;;10.80;;
49460;SDS011;35355;49.198;-0.368;2023-04-06T00:17:48;19.00;;;11.63;;
49460;SDS011;35355;49.198;-0.368;2023-04-06T00:20:14;18.73;;;10.75;;
49460;SDS011;35355;49.198;-0.368;2023-04-06T00:22:39;17.23;;;10.52;;
49460;SDS011;35355;49.198;-0.368;2023-04-06T00:25:05;18.30;;;10.10;;
49460;SDS011;35355;49.198;-0.368;2023-04-06T00:27:31;16.13;;;10.10;;
49460;SDS011;35355;49.198;-0.368;2023-04-06T00:29:56;22.25;;;10.23;;
49460;SDS011;35355;49.198;-0.368;2023-04-06T00:32:21;14.82;;;9.63;;
49460;SDS011;35355;49.198;-0.368;2023-04-06T00:34:47;15.07;;;8.80;;
49460;SDS011;35355;49.198;-0.368;2023-04-06T00:37:12;14.60;;;8.32;;
49460;SDS011;35355;49.198;-0.368;2023-04-06T00:39:38;12.50;;;7.28;;
49460;SDS011;35355;49.198;-0.368;2023-04-06T00:42:07;10.68;;;6.45;;
49460;SDS011;35355;49.198;-0.368;2023-04-06T00:44:38;13.48;;;6.63;;
49460;SDS011;35355;49.198;-0.368;2023-04-06T00:47:04;11.88;;;5.47;;
49460;SDS011;35355;49.198;-0.368;2023-04-06T00:49:29;8.82;;;5.47;;
49460;SDS011;35355;49.198;-0.368;2023-04-06T00:51:55;10.02;;;5.03;;
49460;SDS011;35355;49.198;-0.368;2023-04-06T00:54:20;7.18;;;4.45;;
49460;SDS011;35355;49.198;-0.368;2023-04-06T00:56:47;6.82;;;4.22;;
49460;SDS011;35355;49.198;-0.368;2023-04-06T00:59:12;7.22;;;3.90;;
49460;SDS011;35355;49.198;-0.368;2023-04-06T01:01:38;7.78;;;3.83;;
49460;SDS011;35355;49.198;-0.368;2023-04-06T01:04:03;5.88;;;3.63;;
49460;SDS011;35355;49.198;-0.368;2023-04-06T01:06:29;5.20;;;3.00;;
49460;SDS011;35355;49.198;-0.368;2023-04-06T01:08:54;8.95;;;3.67;;
49460;SDS011;35355;49.198;-0.368;2023-04-06T01:11:20;4.43;;;2.55;;
49460;SDS011;35355;49.198;-0.368;2023-04-06T01:13:45;4.82;;;2.72;;
49460;SDS011;35355;49.198;-0.368;2023-04-06T01:16:11;4.28;;;2.22;;
49460;SDS011;35355;49.198;-0.368;2023-04-06T01:18:37;4.13;;;2.45;;
49460;SDS011;35355;49.198;-0.368;2023-04-06T01:21:02;5.55;;;2.35;;
49460;SDS011;35355;49.198;-0.368;2023-04-06T01:23:28;6.10;;;1.48;;
49460;SDS011;35355;49.198;-0.368;2023-04-06T01:25:53;3.05;;;1.75;;
49460;SDS011;35355;49.198;-0.368;2023-04-06T01:28:19;3.78;;;1.60;;
49460;SDS011;35355;49.198;-0.368;2023-04-06T01:30:44;2.20;;;1.48;;
49460;SDS011;35355;49.198;-0.368;2023-04-06T01:33:09;4.55;;;1.20;;
49460;SDS011;35355;49.198;-0.368;2023-04-06T01:35:35;4.28;;;1.63;;
49460;SDS011;35355;49.198;-0.368;2023-04-06T01:38:01;3.30;;;1.55;;
49460;SDS011;35355;49.198;-0.368;2023-04-06T01:40:26;2.80;;;1.40;;
49460;SDS011;35355;49.198;-0.368;2023-04-06T01:42:52;3.17;;;1.20;;
49460;SDS011;35355;49.198;-0.368;2023-04-06T01:45:17;3.70;;;1.38;;
49460;SDS011;35355;49.198;-0.368;2023-04-06T01:47:42;4.55;;;1.48;;
49460;SDS011;35355;49.198;-0.368;2023-04-06T01:50:08;3.38;;;1.60;;
49460;SDS011;35355;49.198;-0.368;2023-04-06T01:52:34;2.50;;;1.45;;
49460;SDS011;35355;49.198;-0.368;2023-04-06T01:54:59;3.42;;;1.60;;
49460;SDS011;35355;49.198;-0.368;2023-04-06T01:57:25;2.95;;;1.52;;
49460;SDS011;35355;49.198;-0.368;2023-04-06T01:59:50;5.28;;;1.83;;
49460;SDS011;35355;49.198;-0.368;2023-04-06T02:02:16;4.70;;;1.30;;
49460;SDS011;35355;49.198;-0.368;2023-04-06T02:04:41;3.92;;;1.83;;
49460;SDS011;35355;49.198;-0.368;2023-04-06T02:07:06;2.97;;;1.23;;
49460;SDS011;35355;49.198;-0.368;2023-04-06T02:09:32;3.17;;;1.20;;
49460;SDS011;35355;49.198;-0.368;2023-04-06T02:11:57;3.42;;;1.55;;
49460;SDS011;35355;49.198;-0.368;2023-04-06T02:14:24;2.95;;;1.35;;
49460;SDS011;35355;49.198;-0.368;2023-04-06T02:16:50;2.65;;;1.05;;
49460;SDS011;35355;49.198;-0.368;2023-04-06T02:19:16;2.35;;;1.20;;
49460;SDS011;35355;49.198;-0.368;2023-04-06T02:21:41;5.30;;;1.40;;
49460;SDS011;35355;49.198;-0.368;2023-04-06T02:24:07;5.25;;;2.03;;
49460;SDS011;35355;49.198;-0.368;2023-04-06T02:26:32;2.65;;;1.23;;
49460;SDS011;35355;49.198;-0.368;2023-04-06T02:28:58;4.40;;;1.65;;
49460;SDS011;35355;49.198;-0.368;2023-04-06T02:31:23;1.90;;;1.08;;
49460;SDS011;35355;49.198;-0.368;2023-04-06T02:33:48;2.88;;;1.65;;
49460;SDS011;35355;49.198;-0.368;2023-04-06T02:36:14;4.60;;;1.40;;
49460;SDS011;35355;49.198;-0.368;2023-04-06T02:38:39;3.17;;;1.15;;
49460;SDS011;35355;49.198;-0.368;2023-04-06T02:41:05;3.45;;;1.25;;
49460;SDS011;35355;49.198;-0.368;2023-04-06T02:43:30;2.45;;;1.42;;
49460;SDS011;35355;49.198;-0.368;2023-04-06T02:45:55;2.42;;;1.23;;
49460;SDS011;35355;49.198;-0.368;2023-04-06T02:48:21;2.45;;;1.30;;
49460;SDS011;35355;49.198;-0.368;2023-04-06T02:50:46;6.30;;;1.80;;
49460;SDS011;35355;49.198;-0.368;2023-04-06T02:53:12;2.35;;;1.40;;
49460;SDS011;35355;49.198;-0.368;2023-04-06T02:55:37;5.30;;;1.40;;
49460;SDS011;35355;49.198;-0.368;2023-04-06T02:58:02;4.93;;;1.10;;
49460;SDS011;35355;49.198;-0.368;2023-04-06T03:00:28;2.15;;;1.30;;
49460;SDS011;35355;49.198;-0.368;2023-04-06T03:02:53;3.17;;;1.90;;
49460;SDS011;35355;49.198;-0.368;2023-04-06T03:05:18;2.83;;;1.67;;
49460;SDS011;35355;49.198;-0.368;2023-04-06T03:07:44;3.42;;;1.65;;
49460;SDS011;35355;49.198;-0.368;2023-04-06T03:10:09;4.10;;;1.45;;
49460;SDS011;35355;49.198;-0.368;2023-04-06T03:12:36;6.40;;;2.03;;
49460;SDS011;35355;49.198;-0.368;2023-04-06T03:15:01;2.92;;;1.80;;
49460;SDS011;35355;49.198;-0.368;2023-04-06T03:17:27;3.78;;;1.80;;
49460;SDS011;35355;49.198;-0.368;2023-04-06T03:19:52;3.83;;;1.88;;
49460;SDS011;35355;49.198;-0.368;2023-04-06T03:22:18;5.20;;;2.10;;
49460;SDS011;35355;49.198;-0.368;2023-04-06T03:24:44;3.22;;;1.92;;
49460;SDS011;35355;49.198;-0.368;2023-04-06T03:27:10;4.25;;;2.28;;
49460;SDS011;35355;49.198;-0.368;2023-04-06T03:29:35;3.08;;;1.75;;
49460;SDS011;35355;49.198;-0.368;2023-04-06T03:32:00;4.70;;;2.33;;
49460;SDS011;35355;49.198;-0.368;2023-04-06T03:34:26;5.05;;;2.38;;
49460;SDS011;35355;49.198;-0.368;2023-04-06T03:36:51;8.18;;;2.78;;
49460;SDS011;35355;49.198;-0.368;2023-04-06T03:39:17;2.97;;;2.03;;
49460;SDS011;35355;49.198;-0.368;2023-04-06T03:41:42;5.85;;;2.53;;
49460;SDS011;35355;49.198;-0.368;2023-04-06T03:44:09;7.15;;;2.58;;
49460;SDS011;35355;49.198;-0.368;2023-04-06T03:46:34;3.95;;;2.92;;
49460;SDS011;35355;49.198;-0.368;2023-04-06T03:49:00;7.07;;;3.00;;
49460;SDS011;35355;49.198;-0.368;2023-04-06T03:51:25;9.15;;;3.05;;
49460;SDS011;35355;49.198;-0.368;2023-04-06T03:53:51;4.88;;;2.35;;
49460;SDS011;35355;49.198;-0.368;2023-04-06T03:56:16;6.97;;;3.50;;
49460;SDS011;35355;49.198;-0.368;2023-04-06T03:58:41;6.32;;;3.03;;
49460;SDS011;35355;49.198;-0.368;2023-04-06T04:01:09;4.85;;;2.53;;
49460;SDS011;35355;49.198;-0.368;2023-04-06T04:03:34;6.80;;;3.30;;
49460;SDS011;35355;49.198;-0.368;2023-04-06T04:06:00;7.25;;;3.05;;
49460;SDS011;35355;49.198;-0.368;2023-04-06T04:08:25;5.63;;;3.33;;
49460;SDS011;35355;49.198;-0.368;2023-04-06T04:10:51;4.40;;;3.03;;
49460;SDS011;35355;49.198;-0.368;2023-04-06T04:13:16;4.85;;;2.63;;
49460;SDS011;35355;49.198;-0.368;2023-04-06T04:15:42;5.80;;;3.70;;
49460;SDS011;35355;49.198;-0.368;2023-04-06T04:18:07;9.25;;;3.75;;
49460;SDS011;35355;49.198;-0.368;2023-04-06T04:20:32;6.38;;;3.72;;
49460;SDS011;35355;49.198;-0.368;2023-04-06T04:22:59;8.90;;;3.95;;
49460;SDS011;35355;49.198;-0.368;2023-04-06T04:25:24;7.10;;;3.53;;
49460;SDS011;35355;49.198;-0.368;2023-04-06T04:27:50;6.93;;;3.97;;
49460;SDS011;35355;49.198;-0.368;2023-04-06T04:30:15;6.70;;;3.90;;
49460;SDS011;35355;49.198;-0.368;2023-04-06T04:32:41;8.13;;;4.30;;
49460;SDS011;35355;49.198;-0.368;2023-04-06T04:35:06;7.97;;;3.53;;
49460;SDS011;35355;49.198;-0.368;2023-04-06T04:37:32;9.25;;;3.78;;
49460;SDS011;35355;49.198;-0.368;2023-04-06T04:39:59;8.15;;;3.42;;
49460;SDS011;35355;49.198;-0.368;2023-04-06T04:42:25;10.82;;;4.18;;
49460;SDS011;35355;49.198;-0.368;2023-04-06T04:44:50;8.35;;;3.70;;
49460;SDS011;35355;49.198;-0.368;2023-04-06T04:47:15;8.52;;;4.47;;
49460;SDS011;35355;49.198;-0.368;2023-04-06T04:49:41;7.97;;;4.20;;
49460;SDS011;35355;49.198;-0.368;2023-04-06T04:52:06;9.10;;;4.20;;
49460;SDS011;35355;49.198;-0.368;2023-04-06T04:54:31;6.60;;;3.85;;
49460;SDS011;35355;49.198;-0.368;2023-04-06T04:56:57;6.93;;;4.60;;
49460;SDS011;35355;49.198;-0.368;2023-04-06T04:59:22;9.82;;;4.53;;
49460;SDS011;35355;49.198;-0.368;2023-04-06T05:01:48;8.43;;;3.63;;
49460;SDS011;35355;49.198;-0.368;2023-04-06T05:04:13;8.20;;;4.18;;
49460;SDS011;35355;49.198;-0.368;2023-04-06T05:06:38;7.85;;;3.65;;
49460;SDS011;35355;49.198;-0.368;2023-04-06T05:09:04;5.43;;;3.38;;
49460;SDS011;35355;49.198;-0.368;2023-04-06T05:11:29;7.22;;;3.83;;
49460;SDS011;35355;49.198;-0.368;2023-04-06T05:13:55;9.05;;;3.70;;
49460;SDS011;35355;49.198;-0.368;2023-04-06T05:16:21;6.85;;;3.90;;
49460;SDS011;35355;49.198;-0.368;2023-04-06T05:18:47;5.47;;;3.70;;
49460;SDS011;35355;49.198;-0.368;2023-04-06T05:21:13;6.82;;;3.95;;
49460;SDS011;35355;49.198;-0.368;2023-04-06T05:23:38;8.30;;;4.22;;
49460;SDS011;35355;49.198;-0.368;2023-04-06T05:26:04;6.60;;;3.83;;
49460;SDS011;35355;49.198;-0.368;2023-04-06T05:28:30;7.00;;;4.18;;
49460;SDS011;35355;49.198;-0.368;2023-04-06T05:30:55;11.65;;;4.57;;
49460;SDS011;35355;49.198;-0.368;2023-04-06T05:33:21;6.85;;;4.93;;
49460;SDS011;35355;49.198;-0.368;2023-04-06T05:35:47;10.50;;;4.78;;
49460;SDS011;35355;49.198;-0.368;2023-04-06T05:38:12;9.80;;;5.13;;
49460;SDS011;35355;49.198;-0.368;2023-04-06T05:40:38;6.97;;;4.82;;
49460;SDS011;35355;49.198;-0.368;2023-04-06T05:43:05;7.90;;;4.63;;
49460;SDS011;35355;49.198;-0.368;2023-04-06T05:45:31;6.82;;;4.80;;
49460;SDS011;35355;49.198;-0.368;2023-04-06T05:47:56;8.35;;;4.80;;
49460;SDS011;35355;49.198;-0.368;2023-04-06T05:50:22;10.18;;;4.40;;
49460;SDS011;35355;49.198;-0.368;2023-04-06T05:52:47;10.25;;;4.93;;
49460;SDS011;35355;49.198;-0.368;2023-04-06T05:55:13;8.40;;;4.57;;
49460;SDS011;35355;49.198;-0.368;2023-04-06T05:57:38;10.32;;;5.03;;
49460;SDS011;35355;49.198;-0.368;2023-04-06T06:00:04;7.75;;;4.53;;
49460;SDS011;35355;49.198;-0.368;2023-04-06T06:02:31;9.60;;;4.65;;
49460;SDS011;35355;49.198;-0.368;2023-04-06T06:04:57;8.98;;;4.72;;
49460;SDS011;35355;49.198;-0.368;2023-04-06T06:07:23;10.00;;;4.90;;
49460;SDS011;35355;49.198;-0.368;2023-04-06T06:09:48;10.93;;;4.82;;
49460;SDS011;35355;49.198;-0.368;2023-04-06T06:12:14;10.40;;;4.80;;
49460;SDS011;35355;49.198;-0.368;2023-04-06T06:14:39;12.80;;;5.63;;
49460;SDS011;35355;49.198;-0.368;2023-04-06T06:17:05;8.45;;;4.80;;
49460;SDS011;35355;49.198;-0.368;2023-04-06T06:19:30;8.07;;;4.80;;
49460;SDS011;35355;49.198;-0.368;2023-04-06T06:21:55;8.85;;;5.07;;
49460;SDS011;35355;49.198;-0.368;2023-04-06T06:24:21;7.82;;;4.47;;
49460;SDS011;35355;49.198;-0.368;2023-04-06T06:26:46;8.00;;;4.90;;
49460;SDS011;35355;49.198;-0.368;2023-04-06T06:29:13;12.18;;;5.03;;
49460;SDS011;35355;49.198;-0.368;2023-04-06T06:31:39;11.73;;;4.75;;
49460;SDS011;35355;49.198;-0.368;2023-04-06T06:34:05;7.43;;;4.43;;
49460;SDS011;35355;49.198;-0.368;2023-04-06T06:36:31;11.45;;;5.20;;
49460;SDS011;35355;49.198;-0.368;2023-04-06T06:38:57;10.35;;;4.85;;
49460;SDS011;35355;49.198;-0.368;2023-04-06T06:41:23;7.93;;;4.38;;
49460;SDS011;35355;49.198;-0.368;2023-04-06T06:43:49;10.63;;;4.68;;
49460;SDS011;35355;49.198;-0.368;2023-04-06T06:46:14;7.82;;;4.40;;
49460;SDS011;35355;49.198;-0.368;2023-04-06T06:48:40;8.50;;;4.57;;
49460;SDS011;35355;49.198;-0.368;2023-04-06T06:51:05;9.77;;;5.22;;
49460;SDS011;35355;49.198;-0.368;2023-04-06T06:53:31;7.97;;;3.78;;
49460;SDS011;35355;49.198;-0.368;2023-04-06T06:55:56;9.00;;;4.43;;
49460;SDS011;35355;49.198;-0.368;2023-04-06T06:58:22;9.27;;;4.80;;
49460;SDS011;35355;49.198;-0.368;2023-04-06T07:00:47;6.82;;;4.63;;
49460;SDS011;35355;49.198;-0.368;2023-04-06T07:03:13;8.43;;;3.67;;
49460;SDS011;35355;49.198;-0.368;2023-04-06T07:05:38;8.07;;;4.40;;
49460;SDS011;35355;49.198;-0.368;2023-04-06T07:08:10;7.57;;;3.88;;
49460;SDS011;35355;49.198;-0.368;2023-04-06T07:10:35;7.00;;;3.80;;
49460;SDS011;35355;49.198;-0.368;2023-04-06T07:13:00;13.48;;;4.07;;
49460;SDS011;35355;49.198;-0.368;2023-04-06T07:15:26;6.82;;;4.03;;
49460;SDS011;35355;49.198;-0.368;2023-04-06T07:17:51;11.90;;;3.70;;
49460;SDS011;35355;49.198;-0.368;2023-04-06T07:20:17;5.63;;;3.15;;
49460;SDS011;35355;49.198;-0.368;2023-04-06T07:22:43;11.50;;;3.60;;
49460;SDS011;35355;49.198;-0.368;2023-04-06T07:25:11;8.45;;;3.47;;
49460;SDS011;35355;49.198;-0.368;2023-04-06T07:27:37;8.52;;;3.75;;
49460;SDS011;35355;49.198;-0.368;2023-04-06T07:30:03;5.65;;;3.42;;
49460;SDS011;35355;49.198;-0.368;2023-04-06T07:32:28;8.93;;;3.10;;
49460;SDS011;35355;49.198;-0.368;2023-04-06T07:34:55;7.68;;;3.22;;
49460;SDS011;35355;49.198;-0.368;2023-04-06T07:37:21;7.35;;;2.97;;
49460;SDS011;35355;49.198;-0.368;2023-04-06T07:39:46;4.10;;;2.17;;
49460;SDS011;35355;49.198;-0.368;2023-04-06T07:42:12;8.10;;;3.08;;
49460;SDS011;35355;49.198;-0.368;2023-04-06T07:44:38;7.55;;;2.92;;
49460;SDS011;35355;49.198;-0.368;2023-04-06T07:47:03;5.47;;;3.10;;
49460;SDS011;35355;49.198;-0.368;2023-04-06T07:49:29;7.63;;;3.42;;
49460;SDS011;35355;49.198;-0.368;2023-04-06T07:51:54;6.22;;;2.78;;
49460;SDS011;35355;49.198;-0.368;2023-04-06T07:54:19;9.70;;;3.08;;
49460;SDS011;35355;49.198;-0.368;2023-04-06T07:56:45;8.50;;;2.78;;
49460;SDS011;35355;49.198;-0.368;2023-04-06T07:59:10;5.82;;;2.58;;
49460;SDS011;35355;49.198;-0.368;2023-04-06T08:01:36;15.23;;;3.17;;
49460;SDS011;35355;49.198;-0.368;2023-04-06T08:04:01;12.02;;;3.00;;
49460;SDS011;35355;49.198;-0.368;2023-04-06T08:06:27;11.57;;;3.15;;
49460;SDS011;35355;49.198;-0.368;2023-04-06T08:08:53;5.90;;;2.20;;
49460;SDS011;35355;49.198;-0.368;2023-04-06T08:11:19;4.53;;;1.88;;
49460;SDS011;35355;49.198;-0.368;2023-04-06T08:13:45;14.00;;;4.05;;
49460;SDS011;35355;49.198;-0.368;2023-04-06T08:16:10;11.68;;;3.50;;
49460;SDS011;35355;49.198;-0.368;2023-04-06T08:18:36;10.18;;;2.53;;
49460;SDS011;35355;49.198;-0.368;2023-04-06T08:21:01;8.93;;;2.50;;
49460;SDS011;35355;49.198;-0.368;2023-04-06T08:23:26;10.75;;;2.38;;
49460;SDS011;35355;49.198;-0.368;2023-04-06T08:25:52;8.38;;;2.85;;
49460;SDS011;35355;49.198;-0.368;2023-04-06T08:28:19;11.00;;;2.10;;
49460;SDS011;35355;49.198;-0.368;2023-04-06T08:30:45;6.63;;;2.60;;
49460;SDS011;35355;49.198;-0.368;2023-04-06T08:33:10;11.77;;;2.63;;
49460;SDS011;35355;49.198;-0.368;2023-04-06T08:35:36;7.07;;;3.03;;
49460;SDS011;35355;49.198;-0.368;2023-04-06T08:38:01;6.63;;;1.67;;
49460;SDS011;35355;49.198;-0.368;2023-04-06T08:40:27;10.27;;;1.90;;
49460;SDS011;35355;49.198;-0.368;2023-04-06T08:42:54;10.30;;;2.47;;
49460;SDS011;35355;49.198;-0.368;2023-04-06T08:45:20;5.45;;;1.35;;
49460;SDS011;35355;49.198;-0.368;2023-04-06T08:47:52;11.63;;;1.95;;
49460;SDS011;35355;49.198;-0.368;2023-04-06T08:50:19;11.70;;;1.37;;
49460;SDS011;35355;49.198;-0.368;2023-04-06T08:52:46;7.43;;;1.10;;
49460;SDS011;35355;49.198;-0.368;2023-04-06T08:55:13;12.98;;;1.73;;
49460;SDS011;35355;49.198;-0.368;2023-04-06T08:57:39;9.23;;;1.67;;
49460;SDS011;35355;49.198;-0.368;2023-04-06T09:00:06;13.07;;;1.55;;
49460;SDS011;35355;49.198;-0.368;2023-04-06T09:02:36;8.65;;;1.50;;
49460;SDS011;35355;49.198;-0.368;2023-04-06T09:05:03;8.57;;;1.80;;
49460;SDS011;35355;49.198;-0.368;2023-04-06T09:07:29;11.30;;;1.35;;
49460;SDS011;35355;49.198;-0.368;2023-04-06T09:09:55;11.00;;;1.52;;
49460;SDS011;35355;49.198;-0.368;2023-04-06T09:14:50;13.38;;;1.35;;
49460;SDS011;35355;49.198;-0.368;2023-04-06T09:17:31;9.88;;;1.17;;
49460;SDS011;35355;49.198;-0.368;2023-04-06T09:19:59;11.07;;;1.83;;
49460;SDS011;35355;49.198;-0.368;2023-04-06T09:22:25;7.85;;;1.33;;
49460;SDS011;35355;49.198;-0.368;2023-04-06T09:25:00;9.23;;;1.35;;
49460;SDS011;35355;49.198;-0.368;2023-04-06T09:27:33;9.20;;;1.20;;
49460;SDS011;35355;49.198;-0.368;2023-04-06T09:30:09;8.18;;;0.90;;
49460;SDS011;35355;49.198;-0.368;2023-04-06T09:32:44;5.97;;;0.82;;
49460;SDS011;35355;49.198;-0.368;2023-04-06T09:35:16;7.75;;;1.15;;
49460;SDS011;35355;49.198;-0.368;2023-04-06T09:37:45;6.30;;;1.08;;
49460;SDS011;35355;49.198;-0.368;2023-04-06T09:40:12;14.52;;;1.50;;
49460;SDS011;35355;49.198;-0.368;2023-04-06T09:42:39;7.00;;;1.00;;
49460;SDS011;35355;49.198;-0.368;2023-04-06T09:45:06;11.50;;;1.63;;
49460;SDS011;35355;49.198;-0.368;2023-04-06T09:47:32;7.28;;;0.90;;
49460;SDS011;35355;49.198;-0.368;2023-04-06T09:50:01;14.77;;;1.38;;
49460;SDS011;35355;49.198;-0.368;2023-04-06T09:52:37;8.85;;;1.17;;
49460;SDS011;35355;49.198;-0.368;2023-04-06T09:55:07;12.10;;;0.90;;
49460;SDS011;35355;49.198;-0.368;2023-04-06T09:57:37;9.60;;;1.38;;
49460;SDS011;35355;49.198;-0.368;2023-04-06T10:00:16;8.38;;;0.75;;
49460;SDS011;35355;49.198;-0.368;2023-04-06T10:08:10;11.80;;;1.30;;
49460;SDS011;35355;49.198;-0.368;2023-04-06T10:10:36;10.15;;;1.33;;
49460;SDS011;35355;49.198;-0.368;2023-04-06T10:13:06;9.05;;;1.40;;
49460;SDS011;35355;49.198;-0.368;2023-04-06T10:15:32;9.07;;;1.10;;
49460;SDS011;35355;49.198;-0.368;2023-04-06T10:17:58;12.07;;;1.35;;
49460;SDS011;35355;49.198;-0.368;2023-04-06T10:20:29;14.55;;;2.33;;
49460;SDS011;35355;49.198;-0.368;2023-04-06T10:23:10;12.77;;;1.88;;
49460;SDS011;35355;49.198;-0.368;2023-04-06T10:25:54;8.80;;;1.30;;
49460;SDS011;35355;49.198;-0.368;2023-04-06T10:28:23;7.45;;;1.75;;
49460;SDS011;35355;49.198;-0.368;2023-04-06T10:30:56;12.75;;;1.50;;
49460;SDS011;35355;49.198;-0.368;2023-04-06T10:33:22;15.10;;;1.27;;
49460;SDS011;35355;49.198;-0.368;2023-04-06T10:35:47;13.27;;;1.85;;
49460;SDS011;35355;49.198;-0.368;2023-04-06T10:38:12;6.70;;;1.27;;
49460;SDS011;35355;49.198;-0.368;2023-04-06T10:40:39;9.68;;;1.83;;
49460;SDS011;35355;49.198;-0.368;2023-04-06T10:45:37;6.57;;;1.20;;
49460;SDS011;35355;49.198;-0.368;2023-04-06T10:48:15;8.95;;;1.55;;
49460;SDS011;35355;49.198;-0.368;2023-04-06T10:50:47;14.25;;;1.67;;
49460;SDS011;35355;49.198;-0.368;2023-04-06T10:53:23;9.95;;;1.83;;
49460;SDS011;35355;49.198;-0.368;2023-04-06T10:55:52;9.90;;;1.17;;
49460;SDS011;35355;49.198;-0.368;2023-04-06T10:58:19;7.68;;;1.58;;
49460;SDS011;35355;49.198;-0.368;2023-04-06T11:00:48;8.30;;;1.50;;
49460;SDS011;35355;49.198;-0.368;2023-04-06T11:03:14;11.68;;;1.42;;
49460;SDS011;35355;49.198;-0.368;2023-04-06T11:05:47;7.35;;;1.27;;
49460;SDS011;35355;49.198;-0.368;2023-04-06T11:11:03;14.57;;;1.50;;
49460;SDS011;35355;49.198;-0.368;2023-04-06T11:13:37;8.88;;;1.33;;
49460;SDS011;35355;49.198;-0.368;2023-04-06T11:16:06;12.70;;;1.73;;
49460;SDS011;35355;49.198;-0.368;2023-04-06T11:18:31;10.63;;;1.52;;
49460;SDS011;35355;49.198;-0.368;2023-04-06T11:20:57;10.35;;;1.52;;
49460;SDS011;35355;49.198;-0.368;2023-04-06T11:23:23;11.27;;;0.90;;
49460;SDS011;35355;49.198;-0.368;2023-04-06T11:25:52;10.30;;;0.95;;
49460;SDS011;35355;49.198;-0.368;2023-04-06T11:28:18;10.00;;;1.55;;
49460;SDS011;35355;49.198;-0.368;2023-04-06T11:30:44;10.00;;;1.35;;
49460;SDS011;35355;49.198;-0.368;2023-04-06T11:33:10;15.18;;;1.65;;
49460;SDS011;35355;49.198;-0.368;2023-04-06T11:35:35;15.43;;;1.50;;
49460;SDS011;35355;49.198;-0.368;2023-04-06T11:38:02;8.70;;;1.63;;
49460;SDS011;35355;49.198;-0.368;2023-04-06T11:40:29;7.45;;;1.40;;
49460;SDS011;35355;49.198;-0.368;2023-04-06T11:42:55;12.30;;;2.33;;
49460;SDS011;35355;49.198;-0.368;2023-04-06T11:45:21;6.50;;;1.52;;
49460;SDS011;35355;49.198;-0.368;2023-04-06T11:47:55;13.48;;;1.50;;
49460;SDS011;35355;49.198;-0.368;2023-04-06T11:50:24;12.13;;;0.75;;
49460;SDS011;35355;49.198;-0.368;2023-04-06T11:52:57;11.93;;;1.95;;
49460;SDS011;35355;49.198;-0.368;2023-04-06T11:55:27;9.82;;;1.42;;
49460;SDS011;35355;49.198;-0.368;2023-04-06T11:57:53;10.43;;;1.30;;
49460;SDS011;35355;49.198;-0.368;2023-04-06T12:00:18;7.13;;;1.30;;
49460;SDS011;35355;49.198;-0.368;2023-04-06T12:02:45;6.80;;;1.23;;
49460;SDS011;35355;49.198;-0.368;2023-04-06T12:05:11;9.88;;;1.70;;
49460;SDS011;35355;49.198;-0.368;2023-04-06T12:07:37;10.98;;;1.95;;
49460;SDS011;35355;49.198;-0.368;2023-04-06T12:10:03;15.43;;;2.10;;
49460;SDS011;35355;49.198;-0.368;2023-04-06T12:12:29;10.25;;;0.95;;
49460;SDS011;35355;49.198;-0.368;2023-04-06T12:14:55;13.60;;;2.38;;
49460;SDS011;35355;49.198;-0.368;2023-04-06T12:17:21;10.52;;;1.95;;
49460;SDS011;35355;49.198;-0.368;2023-04-06T12:19:46;7.68;;;1.52;;
49460;SDS011;35355;49.198;-0.368;2023-04-06T12:22:12;9.25;;;1.30;;
49460;SDS011;35355;49.198;-0.368;2023-04-06T12:24:37;9.10;;;1.70;;
49460;SDS011;35355;49.198;-0.368;2023-04-06T12:27:03;6.78;;;1.80;;
49460;SDS011;35355;49.198;-0.368;2023-04-06T12:29:28;17.23;;;2.05;;
49460;SDS011;35355;49.198;-0.368;2023-04-06T12:31:54;8.45;;;1.52;;
49460;SDS011;35355;49.198;-0.368;2023-04-06T12:34:20;9.80;;;1.73;;
49460;SDS011;35355;49.198;-0.368;2023-04-06T12:36:45;16.40;;;2.60;;
49460;SDS011;35355;49.198;-0.368;2023-04-06T12:39:10;9.13;;;1.70;;
49460;SDS011;35355;49.198;-0.368;2023-04-06T12:41:36;9.13;;;0.85;;
49460;SDS011;35355;49.198;-0.368;2023-04-06T12:44:02;7.60;;;0.90;;
49460;SDS011;35355;49.198;-0.368;2023-04-06T12:46:27;5.25;;;0.80;;
49460;SDS011;35355;49.198;-0.368;2023-04-06T12:48:55;10.30;;;0.98;;
49460;SDS011;35355;49.198;-0.368;2023-04-06T12:51:21;9.63;;;0.90;;
49460;SDS011;35355;49.198;-0.368;2023-04-06T12:53:47;9.27;;;0.90;;
49460;SDS011;35355;49.198;-0.368;2023-04-06T12:56:14;6.38;;;1.00;;
49460;SDS011;35355;49.198;-0.368;2023-04-06T12:58:40;10.88;;;1.45;;
49460;SDS011;35355;49.198;-0.368;2023-04-06T13:01:06;6.38;;;1.42;;
49460;SDS011;35355;49.198;-0.368;2023-04-06T13:03:33;4.80;;;0.80;;
49460;SDS011;35355;49.198;-0.368;2023-04-06T13:05:59;4.78;;;0.70;;
49460;SDS011;35355;49.198;-0.368;2023-04-06T13:08:26;3.30;;;0.52;;
49460;SDS011;35355;49.198;-0.368;2023-04-06T13:10:52;3.05;;;0.65;;
49460;SDS011;35355;49.198;-0.368;2023-04-06T13:13:25;4.93;;;0.60;;
49460;SDS011;35355;49.198;-0.368;2023-04-06T13:15:52;2.97;;;0.70;;
49460;SDS011;35355;49.198;-0.368;2023-04-06T13:18:38;4.85;;;0.52;;
49460;SDS011;35355;49.198;-0.368;2023-04-06T13:21:04;4.90;;;1.52;;
49460;SDS011;35355;49.198;-0.368;2023-04-06T13:23:30;9.15;;;1.45;;
49460;SDS011;35355;49.198;-0.368;2023-04-06T13:28:25;8.73;;;0.68;;
49460;SDS011;35355;49.198;-0.368;2023-04-06T13:30:51;8.77;;;1.05;;
49460;SDS011;35355;49.198;-0.368;2023-04-06T13:33:16;8.80;;;1.33;;
49460;SDS011;35355;49.198;-0.368;2023-04-06T13:35:44;3.00;;;0.63;;
49460;SDS011;35355;49.198;-0.368;2023-04-06T13:38:10;8.50;;;0.65;;
49460;SDS011;35355;49.198;-0.368;2023-04-06T13:40:38;7.35;;;0.88;;
49460;SDS011;35355;49.198;-0.368;2023-04-06T13:43:04;9.55;;;1.10;;
49460;SDS011;35355;49.198;-0.368;2023-04-06T13:45:30;4.45;;;0.63;;
49460;SDS011;35355;49.198;-0.368;2023-04-06T13:47:55;5.22;;;0.88;;
49460;SDS011;35355;49.198;-0.368;2023-04-06T13:50:21;7.28;;;1.35;;
49460;SDS011;35355;49.198;-0.368;2023-04-06T13:52:46;13.52;;;1.15;;
49460;SDS011;35355;49.198;-0.368;2023-04-06T13:55:11;10.57;;;1.38;;
49460;SDS011;35355;49.198;-0.368;2023-04-06T13:57:37;8.40;;;1.50;;
49460;SDS011;35355;49.198;-0.368;2023-04-06T14:00:02;12.63;;;1.45;;
49460;SDS011;35355;49.198;-0.368;2023-04-06T14:02:28;8.40;;;0.95;;
49460;SDS011;35355;49.198;-0.368;2023-04-06T14:04:54;9.27;;;1.10;;
49460;SDS011;35355;49.198;-0.368;2023-04-06T14:07:20;10.10;;;0.82;;
49460;SDS011;35355;49.198;-0.368;2023-04-06T14:09:46;9.70;;;1.45;;
49460;SDS011;35355;49.198;-0.368;2023-04-06T14:12:11;16.25;;;1.77;;
49460;SDS011;35355;49.198;-0.368;2023-04-06T14:14:36;15.10;;;1.30;;
49460;SDS011;35355;49.198;-0.368;2023-04-06T14:17:02;15.25;;;0.93;;
49460;SDS011;35355;49.198;-0.368;2023-04-06T14:19:27;6.22;;;0.68;;
49460;SDS011;35355;49.198;-0.368;2023-04-06T14:21:52;10.30;;;1.58;;
49460;SDS011;35355;49.198;-0.368;2023-04-06T14:24:18;11.02;;;1.10;;
49460;SDS011;35355;49.198;-0.368;2023-04-06T14:26:45;7.07;;;0.98;;
49460;SDS011;35355;49.198;-0.368;2023-04-06T14:29:11;7.93;;;1.65;;
49460;SDS011;35355;49.198;-0.368;2023-04-06T14:31:36;10.45;;;1.33;;
49460;SDS011;35355;49.198;-0.368;2023-04-06T14:34:02;6.68;;;1.10;;
49460;SDS011;35355;49.198;-0.368;2023-04-06T14:36:28;15.57;;;1.33;;
49460;SDS011;35355;49.198;-0.368;2023-04-06T14:39:01;9.82;;;1.52;;
49460;SDS011;35355;49.198;-0.368;2023-04-06T14:41:27;6.40;;;0.93;;